sensor_id;sensor_type;location;lat;lon;timestamp;P1;durP1;ratioP1;P2;durP2;ratioP2
24483;SDS011;12643;51.620;7.548;2023-02-28T00:01:20;5.47;;;2.60;;
24483;SDS011;12643;51.620;7.548;2023-02-28T00:03:50;3.10;;;2.13;;
24483;SDS011;12643;51.620;7.548;2023-02-28T00:06:18;8.00;;;2.50;;
24483;SDS011;12643;51.620;7.548;2023-02-28T00:08:46;5.55;;;2.53;;
24483;SDS011;12643;51.620;7.548;2023-02-28T00:11:14;4.25;;;2.20;;
24483;SDS011;12643;51.620;7.548;2023-02-28T00:13:44;5.95;;;2.15;;
24483;SDS011;12643;51.620;7.548;2023-02-28T00:16:15;5.13;;;2.30;;
24483;SDS011;12643;51.620;7.548;2023-02-28T00:18:46;2.80;;;1.83;;
24483;SDS011;12643;51.620;7.548;2023-02-28T00:21:16;5.50;;;2.00;;
24483;SDS011;12643;51.620;7.548;2023-02-28T00:23:45;9.05;;;2.67;;
24483;SDS011;12643;51.620;7.548;2023-02-28T00:26:14;6.35;;;2.40;;
24483;SDS011;12643;51.620;7.548;2023-02-28T00:28:42;4.05;;;1.92;;
24483;SDS011;12643;51.620;7.548;2023-02-28T00:31:12;4.38;;;2.17;;
24483;SDS011;12643;51.620;7.548;2023-02-28T00:33:40;4.25;;;2.28;;
24483;SDS011;12643;51.620;7.548;2023-02-28T00:36:10;3.10;;;2.00;;
24483;SDS011;12643;51.620;7.548;2023-02-28T00:38:40;7.03;;;2.33;;
24483;SDS011;12643;51.620;7.548;2023-02-28T00:41:08;2.53;;;1.50;;
24483;SDS011;12643;51.620;7.548;2023-02-28T00:43:38;3.33;;;2.03;;
24483;SDS011;12643;51.620;7.548;2023-02-28T00:46:08;3.85;;;1.90;;
24483;SDS011;12643;51.620;7.548;2023-02-28T00:48:36;4.25;;;2.42;;
24483;SDS011;12643;51.620;7.548;2023-02-28T00:51:04;5.65;;;2.15;;
24483;SDS011;12643;51.620;7.548;2023-02-28T00:53:33;3.85;;;1.85;;
24483;SDS011;12643;51.620;7.548;2023-02-28T00:56:02;4.13;;;1.80;;
24483;SDS011;12643;51.620;7.548;2023-02-28T00:58:31;2.90;;;2.13;;
24483;SDS011;12643;51.620;7.548;2023-02-28T01:00:58;2.60;;;1.48;;
24483;SDS011;12643;51.620;7.548;2023-02-28T01:03:26;2.97;;;1.73;;
24483;SDS011;12643;51.620;7.548;2023-02-28T01:05:55;4.15;;;2.10;;
24483;SDS011;12643;51.620;7.548;2023-02-28T01:08:23;3.13;;;1.77;;
24483;SDS011;12643;51.620;7.548;2023-02-28T01:10:51;3.00;;;1.83;;
24483;SDS011;12643;51.620;7.548;2023-02-28T01:13:21;5.50;;;1.98;;
24483;SDS011;12643;51.620;7.548;2023-02-28T01:15:53;5.22;;;2.50;;
24483;SDS011;12643;51.620;7.548;2023-02-28T01:18:22;5.63;;;2.10;;
24483;SDS011;12643;51.620;7.548;2023-02-28T01:20:54;4.72;;;1.92;;
24483;SDS011;12643;51.620;7.548;2023-02-28T01:23:22;3.38;;;1.88;;
24483;SDS011;12643;51.620;7.548;2023-02-28T01:25:51;4.15;;;2.28;;
24483;SDS011;12643;51.620;7.548;2023-02-28T01:28:19;3.38;;;2.33;;
24483;SDS011;12643;51.620;7.548;2023-02-28T01:30:48;7.25;;;2.13;;
24483;SDS011;12643;51.620;7.548;2023-02-28T01:33:16;7.35;;;2.13;;
24483;SDS011;12643;51.620;7.548;2023-02-28T01:35:45;5.18;;;1.77;;
24483;SDS011;12643;51.620;7.548;2023-02-28T01:38:13;2.95;;;1.90;;
24483;SDS011;12643;51.620;7.548;2023-02-28T01:40:41;4.25;;;2.00;;
24483;SDS011;12643;51.620;7.548;2023-02-28T01:43:10;2.80;;;2.10;;
24483;SDS011;12643;51.620;7.548;2023-02-28T01:45:48;5.03;;;2.05;;
24483;SDS011;12643;51.620;7.548;2023-02-28T01:48:16;4.20;;;2.30;;
24483;SDS011;12643;51.620;7.548;2023-02-28T01:50:44;5.05;;;2.00;;
24483;SDS011;12643;51.620;7.548;2023-02-28T01:53:15;4.57;;;2.00;;
24483;SDS011;12643;51.620;7.548;2023-02-28T01:55:47;2.15;;;1.60;;
24483;SDS011;12643;51.620;7.548;2023-02-28T01:58:18;2.80;;;2.15;;
24483;SDS011;12643;51.620;7.548;2023-02-28T02:00:48;3.53;;;1.80;;
24483;SDS011;12643;51.620;7.548;2023-02-28T02:03:18;2.85;;;1.92;;
24483;SDS011;12643;51.620;7.548;2023-02-28T02:05:47;4.93;;;2.83;;
24483;SDS011;12643;51.620;7.548;2023-02-28T02:08:17;4.32;;;2.50;;
24483;SDS011;12643;51.620;7.548;2023-02-28T02:10:49;5.13;;;2.20;;
24483;SDS011;12643;51.620;7.548;2023-02-28T02:16:24;7.45;;;2.22;;
24483;SDS011;12643;51.620;7.548;2023-02-28T02:19:04;4.20;;;2.17;;
24483;SDS011;12643;51.620;7.548;2023-02-28T02:22:02;5.80;;;2.28;;
24483;SDS011;12643;51.620;7.548;2023-02-28T02:24:59;5.30;;;2.40;;
24483;SDS011;12643;51.620;7.548;2023-02-28T02:27:45;4.95;;;2.05;;
24483;SDS011;12643;51.620;7.548;2023-02-28T02:33:47;4.13;;;2.22;;
24483;SDS011;12643;51.620;7.548;2023-02-28T02:36:37;6.13;;;2.33;;
24483;SDS011;12643;51.620;7.548;2023-02-28T02:39:12;5.22;;;2.20;;
24483;SDS011;12643;51.620;7.548;2023-02-28T02:41:45;7.05;;;2.58;;
24483;SDS011;12643;51.620;7.548;2023-02-28T02:44:18;4.60;;;2.40;;
24483;SDS011;12643;51.620;7.548;2023-02-28T02:46:51;4.35;;;2.50;;
24483;SDS011;12643;51.620;7.548;2023-02-28T02:49:24;6.38;;;2.20;;
24483;SDS011;12643;51.620;7.548;2023-02-28T02:51:57;4.43;;;1.98;;
24483;SDS011;12643;51.620;7.548;2023-02-28T02:54:31;3.47;;;1.88;;
24483;SDS011;12643;51.620;7.548;2023-02-28T02:57:03;3.95;;;2.15;;
24483;SDS011;12643;51.620;7.548;2023-02-28T02:59:35;3.60;;;2.25;;
24483;SDS011;12643;51.620;7.548;2023-02-28T03:02:06;4.03;;;2.23;;
24483;SDS011;12643;51.620;7.548;2023-02-28T03:04:40;4.47;;;2.05;;
24483;SDS011;12643;51.620;7.548;2023-02-28T03:07:12;4.75;;;2.40;;
24483;SDS011;12643;51.620;7.548;2023-02-28T03:09:40;2.65;;;1.75;;
24483;SDS011;12643;51.620;7.548;2023-02-28T03:12:16;2.95;;;2.13;;
24483;SDS011;12643;51.620;7.548;2023-02-28T03:14:48;3.95;;;2.38;;
24483;SDS011;12643;51.620;7.548;2023-02-28T03:17:28;4.20;;;2.35;;
24483;SDS011;12643;51.620;7.548;2023-02-28T03:20:18;3.58;;;2.08;;
24483;SDS011;12643;51.620;7.548;2023-02-28T03:22:57;3.00;;;2.33;;
24483;SDS011;12643;51.620;7.548;2023-02-28T03:25:36;2.92;;;2.05;;
24483;SDS011;12643;51.620;7.548;2023-02-28T03:28:08;2.67;;;1.90;;
24483;SDS011;12643;51.620;7.548;2023-02-28T03:30:45;2.70;;;2.15;;
24483;SDS011;12643;51.620;7.548;2023-02-28T03:33:20;3.35;;;2.45;;
24483;SDS011;12643;51.620;7.548;2023-02-28T03:35:53;4.50;;;1.90;;
24483;SDS011;12643;51.620;7.548;2023-02-28T03:38:27;3.88;;;2.15;;
24483;SDS011;12643;51.620;7.548;2023-02-28T03:40:59;2.53;;;2.00;;
24483;SDS011;12643;51.620;7.548;2023-02-28T03:43:33;3.15;;;2.00;;
24483;SDS011;12643;51.620;7.548;2023-02-28T03:46:07;2.25;;;1.77;;
24483;SDS011;12643;51.620;7.548;2023-02-28T03:48:38;2.00;;;1.80;;
24483;SDS011;12643;51.620;7.548;2023-02-28T03:51:13;2.33;;;1.58;;
24483;SDS011;12643;51.620;7.548;2023-02-28T03:53:46;4.55;;;2.22;;
24483;SDS011;12643;51.620;7.548;2023-02-28T03:56:18;3.13;;;2.33;;
24483;SDS011;12643;51.620;7.548;2023-02-28T03:58:51;3.47;;;2.80;;
24483;SDS011;12643;51.620;7.548;2023-02-28T04:01:26;4.25;;;2.20;;
24483;SDS011;12643;51.620;7.548;2023-02-28T04:03:58;4.05;;;2.22;;
24483;SDS011;12643;51.620;7.548;2023-02-28T04:06:30;4.05;;;2.55;;
24483;SDS011;12643;51.620;7.548;2023-02-28T04:08:59;4.72;;;2.60;;
24483;SDS011;12643;51.620;7.548;2023-02-28T04:11:30;6.00;;;2.95;;
24483;SDS011;12643;51.620;7.548;2023-02-28T04:14:01;5.43;;;3.13;;
24483;SDS011;12643;51.620;7.548;2023-02-28T04:16:30;6.75;;;3.17;;
24483;SDS011;12643;51.620;7.548;2023-02-28T04:18:59;6.85;;;3.00;;
24483;SDS011;12643;51.620;7.548;2023-02-28T04:21:33;6.57;;;2.22;;
24483;SDS011;12643;51.620;7.548;2023-02-28T04:24:02;3.70;;;2.53;;
24483;SDS011;12643;51.620;7.548;2023-02-28T04:26:33;6.30;;;2.92;;
24483;SDS011;12643;51.620;7.548;2023-02-28T04:29:02;7.82;;;3.03;;
24483;SDS011;12643;51.620;7.548;2023-02-28T04:31:31;7.70;;;2.60;;
24483;SDS011;12643;51.620;7.548;2023-02-28T04:33:59;8.98;;;3.15;;
24483;SDS011;12643;51.620;7.548;2023-02-28T04:36:27;4.60;;;2.35;;
24483;SDS011;12643;51.620;7.548;2023-02-28T04:38:57;4.28;;;2.78;;
24483;SDS011;12643;51.620;7.548;2023-02-28T04:41:25;6.47;;;2.60;;
24483;SDS011;12643;51.620;7.548;2023-02-28T04:43:53;5.38;;;2.22;;
24483;SDS011;12643;51.620;7.548;2023-02-28T04:46:21;3.25;;;2.28;;
24483;SDS011;12643;51.620;7.548;2023-02-28T04:48:49;4.20;;;2.35;;
24483;SDS011;12643;51.620;7.548;2023-02-28T04:51:24;4.40;;;2.42;;
24483;SDS011;12643;51.620;7.548;2023-02-28T04:53:52;3.72;;;2.35;;
24483;SDS011;12643;51.620;7.548;2023-02-28T04:56:22;3.88;;;2.30;;
24483;SDS011;12643;51.620;7.548;2023-02-28T04:58:51;5.27;;;2.13;;
24483;SDS011;12643;51.620;7.548;2023-02-28T05:01:21;4.25;;;2.28;;
24483;SDS011;12643;51.620;7.548;2023-02-28T05:03:52;4.30;;;2.13;;
24483;SDS011;12643;51.620;7.548;2023-02-28T05:06:21;3.20;;;2.13;;
24483;SDS011;12643;51.620;7.548;2023-02-28T05:08:50;2.95;;;2.13;;
24483;SDS011;12643;51.620;7.548;2023-02-28T05:11:19;3.60;;;2.40;;
24483;SDS011;12643;51.620;7.548;2023-02-28T05:13:52;2.97;;;2.05;;
24483;SDS011;12643;51.620;7.548;2023-02-28T05:16:20;2.63;;;1.95;;
24483;SDS011;12643;51.620;7.548;2023-02-28T05:18:49;4.55;;;2.45;;
24483;SDS011;12643;51.620;7.548;2023-02-28T05:21:23;3.72;;;1.98;;
24483;SDS011;12643;51.620;7.548;2023-02-28T05:23:53;5.63;;;2.17;;
24483;SDS011;12643;51.620;7.548;2023-02-28T05:26:34;4.43;;;2.92;;
24483;SDS011;12643;51.620;7.548;2023-02-28T05:29:04;6.15;;;2.42;;
24483;SDS011;12643;51.620;7.548;2023-02-28T05:31:32;6.10;;;2.88;;
24483;SDS011;12643;51.620;7.548;2023-02-28T05:34:01;3.40;;;2.58;;
24483;SDS011;12643;51.620;7.548;2023-02-28T05:36:31;3.92;;;2.60;;
24483;SDS011;12643;51.620;7.548;2023-02-28T05:39:02;3.55;;;2.55;;
24483;SDS011;12643;51.620;7.548;2023-02-28T05:41:33;4.68;;;2.60;;
24483;SDS011;12643;51.620;7.548;2023-02-28T05:44:04;4.13;;;2.40;;
24483;SDS011;12643;51.620;7.548;2023-02-28T05:46:33;5.50;;;2.67;;
24483;SDS011;12643;51.620;7.548;2023-02-28T05:51:33;3.72;;;2.38;;
24483;SDS011;12643;51.620;7.548;2023-02-28T05:54:06;5.22;;;2.58;;
24483;SDS011;12643;51.620;7.548;2023-02-28T05:56:36;4.55;;;2.63;;
24483;SDS011;12643;51.620;7.548;2023-02-28T05:59:06;3.60;;;2.53;;
24483;SDS011;12643;51.620;7.548;2023-02-28T06:01:35;4.68;;;2.20;;
24483;SDS011;12643;51.620;7.548;2023-02-28T06:04:07;6.10;;;3.70;;
24483;SDS011;12643;51.620;7.548;2023-02-28T06:06:36;4.82;;;2.67;;
24483;SDS011;12643;51.620;7.548;2023-02-28T06:09:06;4.30;;;2.88;;
24483;SDS011;12643;51.620;7.548;2023-02-28T06:11:37;5.03;;;3.10;;
24483;SDS011;12643;51.620;7.548;2023-02-28T06:14:05;8.25;;;3.20;;
24483;SDS011;12643;51.620;7.548;2023-02-28T06:16:34;6.30;;;2.85;;
24483;SDS011;12643;51.620;7.548;2023-02-28T06:19:03;4.55;;;3.17;;
24483;SDS011;12643;51.620;7.548;2023-02-28T06:21:32;5.97;;;3.20;;
24483;SDS011;12643;51.620;7.548;2023-02-28T06:24:00;6.55;;;3.30;;
24483;SDS011;12643;51.620;7.548;2023-02-28T06:26:30;5.93;;;2.95;;
24483;SDS011;12643;51.620;7.548;2023-02-28T06:29:03;4.63;;;3.40;;
24483;SDS011;12643;51.620;7.548;2023-02-28T06:31:31;4.40;;;2.90;;
24483;SDS011;12643;51.620;7.548;2023-02-28T06:34:00;7.45;;;4.25;;
24483;SDS011;12643;51.620;7.548;2023-02-28T06:36:28;5.82;;;3.55;;
24483;SDS011;12643;51.620;7.548;2023-02-28T06:38:56;7.80;;;4.30;;
24483;SDS011;12643;51.620;7.548;2023-02-28T06:41:25;5.70;;;3.97;;
24483;SDS011;12643;51.620;7.548;2023-02-28T06:43:53;6.25;;;4.38;;
24483;SDS011;12643;51.620;7.548;2023-02-28T06:46:28;7.95;;;4.30;;
24483;SDS011;12643;51.620;7.548;2023-02-28T06:48:55;8.23;;;3.60;;
24483;SDS011;12643;51.620;7.548;2023-02-28T06:51:23;7.40;;;3.92;;
24483;SDS011;12643;51.620;7.548;2023-02-28T06:53:52;6.95;;;3.70;;
24483;SDS011;12643;51.620;7.548;2023-02-28T06:56:19;5.20;;;3.42;;
24483;SDS011;12643;51.620;7.548;2023-02-28T06:58:48;5.43;;;3.55;;
24483;SDS011;12643;51.620;7.548;2023-02-28T07:01:18;7.60;;;3.97;;
24483;SDS011;12643;51.620;7.548;2023-02-28T07:03:49;4.97;;;3.70;;
24483;SDS011;12643;51.620;7.548;2023-02-28T07:06:18;7.33;;;3.93;;
24483;SDS011;12643;51.620;7.548;2023-02-28T07:08:48;5.13;;;3.72;;
24483;SDS011;12643;51.620;7.548;2023-02-28T07:11:16;8.73;;;3.97;;
24483;SDS011;12643;51.620;7.548;2023-02-28T07:13:44;6.72;;;3.83;;
24483;SDS011;12643;51.620;7.548;2023-02-28T07:16:13;9.43;;;4.30;;
24483;SDS011;12643;51.620;7.548;2023-02-28T07:18:41;18.58;;;6.70;;
24483;SDS011;12643;51.620;7.548;2023-02-28T07:21:11;17.42;;;6.15;;
24483;SDS011;12643;51.620;7.548;2023-02-28T07:23:39;20.38;;;8.07;;
24483;SDS011;12643;51.620;7.548;2023-02-28T07:26:10;19.77;;;7.97;;
24483;SDS011;12643;51.620;7.548;2023-02-28T07:28:40;19.58;;;7.45;;
24483;SDS011;12643;51.620;7.548;2023-02-28T07:31:09;22.10;;;9.63;;
24483;SDS011;12643;51.620;7.548;2023-02-28T07:33:39;19.73;;;8.48;;
24483;SDS011;12643;51.620;7.548;2023-02-28T07:36:08;20.35;;;7.13;;
24483;SDS011;12643;51.620;7.548;2023-02-28T07:38:41;14.60;;;5.68;;
24483;SDS011;12643;51.620;7.548;2023-02-28T07:41:09;18.20;;;7.68;;
24483;SDS011;12643;51.620;7.548;2023-02-28T07:43:39;11.13;;;6.00;;
24483;SDS011;12643;51.620;7.548;2023-02-28T07:46:08;10.98;;;5.20;;
24483;SDS011;12643;51.620;7.548;2023-02-28T07:48:37;12.10;;;4.57;;
24483;SDS011;12643;51.620;7.548;2023-02-28T07:51:06;25.33;;;5.88;;
24483;SDS011;12643;51.620;7.548;2023-02-28T07:53:35;8.27;;;4.63;;
24483;SDS011;12643;51.620;7.548;2023-02-28T07:56:06;8.55;;;5.15;;
24483;SDS011;12643;51.620;7.548;2023-02-28T07:58:36;10.93;;;5.38;;
24483;SDS011;12643;51.620;7.548;2023-02-28T08:01:05;8.75;;;4.72;;
24483;SDS011;12643;51.620;7.548;2023-02-28T08:03:36;9.90;;;4.93;;
24483;SDS011;12643;51.620;7.548;2023-02-28T08:08:42;12.80;;;5.78;;
24483;SDS011;12643;51.620;7.548;2023-02-28T08:11:10;9.82;;;5.55;;
24483;SDS011;12643;51.620;7.548;2023-02-28T08:13:38;11.45;;;5.80;;
24483;SDS011;12643;51.620;7.548;2023-02-28T08:16:07;8.25;;;4.75;;
24483;SDS011;12643;51.620;7.548;2023-02-28T08:18:36;10.35;;;4.40;;
24483;SDS011;12643;51.620;7.548;2023-02-28T08:21:07;7.90;;;4.90;;
24483;SDS011;12643;51.620;7.548;2023-02-28T08:26:05;13.68;;;5.22;;
24483;SDS011;12643;51.620;7.548;2023-02-28T08:28:33;8.27;;;4.78;;
24483;SDS011;12643;51.620;7.548;2023-02-28T08:31:06;8.93;;;4.38;;
24483;SDS011;12643;51.620;7.548;2023-02-28T08:33:37;7.93;;;4.93;;
24483;SDS011;12643;51.620;7.548;2023-02-28T08:36:06;10.73;;;5.07;;
24483;SDS011;12643;51.620;7.548;2023-02-28T08:38:35;9.70;;;5.20;;
24483;SDS011;12643;51.620;7.548;2023-02-28T08:41:05;12.23;;;4.72;;
24483;SDS011;12643;51.620;7.548;2023-02-28T08:43:34;9.50;;;5.32;;
24483;SDS011;12643;51.620;7.548;2023-02-28T08:46:03;12.40;;;5.03;;
24483;SDS011;12643;51.620;7.548;2023-02-28T08:48:32;9.02;;;5.20;;
24483;SDS011;12643;51.620;7.548;2023-02-28T08:51:04;11.68;;;5.32;;
24483;SDS011;12643;51.620;7.548;2023-02-28T08:53:34;12.15;;;4.90;;
24483;SDS011;12643;51.620;7.548;2023-02-28T08:56:07;7.65;;;4.75;;
24483;SDS011;12643;51.620;7.548;2023-02-28T08:58:37;8.23;;;5.13;;
24483;SDS011;12643;51.620;7.548;2023-02-28T09:01:09;13.55;;;5.15;;
24483;SDS011;12643;51.620;7.548;2023-02-28T09:03:40;13.45;;;4.55;;
24483;SDS011;12643;51.620;7.548;2023-02-28T09:06:08;11.73;;;5.10;;
24483;SDS011;12643;51.620;7.548;2023-02-28T09:08:37;7.40;;;4.65;;
24483;SDS011;12643;51.620;7.548;2023-02-28T09:11:07;8.27;;;4.70;;
24483;SDS011;12643;51.620;7.548;2023-02-28T09:13:36;9.73;;;4.80;;
24483;SDS011;12643;51.620;7.548;2023-02-28T09:16:05;8.77;;;4.45;;
24483;SDS011;12643;51.620;7.548;2023-02-28T09:18:35;9.77;;;4.28;;
24483;SDS011;12643;51.620;7.548;2023-02-28T09:21:04;5.88;;;3.83;;
24483;SDS011;12643;51.620;7.548;2023-02-28T09:23:32;6.88;;;4.18;;
24483;SDS011;12643;51.620;7.548;2023-02-28T09:26:00;9.82;;;4.03;;
24483;SDS011;12643;51.620;7.548;2023-02-28T09:28:30;7.47;;;3.97;;
24483;SDS011;12643;51.620;7.548;2023-02-28T09:30:58;9.45;;;3.65;;
24483;SDS011;12643;51.620;7.548;2023-02-28T09:33:29;7.43;;;3.92;;
24483;SDS011;12643;51.620;7.548;2023-02-28T09:35:58;8.93;;;3.67;;
24483;SDS011;12643;51.620;7.548;2023-02-28T09:38:31;5.78;;;3.47;;
24483;SDS011;12643;51.620;7.548;2023-02-28T09:41:00;6.93;;;3.33;;
24483;SDS011;12643;51.620;7.548;2023-02-28T09:43:33;10.77;;;2.90;;
24483;SDS011;12643;51.620;7.548;2023-02-28T09:46:05;9.02;;;2.72;;
24483;SDS011;12643;51.620;7.548;2023-02-28T09:48:39;6.53;;;2.58;;
24483;SDS011;12643;51.620;7.548;2023-02-28T09:51:12;8.30;;;2.67;;
24483;SDS011;12643;51.620;7.548;2023-02-28T09:53:47;6.45;;;2.53;;
24483;SDS011;12643;51.620;7.548;2023-02-28T09:56:18;10.68;;;2.67;;
24483;SDS011;12643;51.620;7.548;2023-02-28T09:58:55;4.72;;;2.40;;
24483;SDS011;12643;51.620;7.548;2023-02-28T10:01:28;7.30;;;2.35;;
24483;SDS011;12643;51.620;7.548;2023-02-28T10:04:04;4.13;;;2.38;;
24483;SDS011;12643;51.620;7.548;2023-02-28T10:06:42;4.05;;;2.00;;
24483;SDS011;12643;51.620;7.548;2023-02-28T10:09:15;4.88;;;2.20;;
24483;SDS011;12643;51.620;7.548;2023-02-28T10:11:48;3.22;;;2.03;;
24483;SDS011;12643;51.620;7.548;2023-02-28T10:14:21;6.03;;;1.87;;
24483;SDS011;12643;51.620;7.548;2023-02-28T10:16:52;3.35;;;2.47;;
24483;SDS011;12643;51.620;7.548;2023-02-28T10:19:23;4.85;;;2.40;;
24483;SDS011;12643;51.620;7.548;2023-02-28T10:21:59;6.35;;;2.28;;
24483;SDS011;12643;51.620;7.548;2023-02-28T10:24:29;2.25;;;1.75;;
24483;SDS011;12643;51.620;7.548;2023-02-28T10:27:00;3.67;;;2.05;;
24483;SDS011;12643;51.620;7.548;2023-02-28T10:29:42;2.65;;;1.80;;
24483;SDS011;12643;51.620;7.548;2023-02-28T10:32:14;3.35;;;2.20;;
24483;SDS011;12643;51.620;7.548;2023-02-28T10:34:44;2.95;;;2.00;;
24483;SDS011;12643;51.620;7.548;2023-02-28T10:37:17;1.60;;;1.50;;
24483;SDS011;12643;51.620;7.548;2023-02-28T10:39:46;3.92;;;1.90;;
24483;SDS011;12643;51.620;7.548;2023-02-28T10:42:19;4.15;;;2.42;;
24483;SDS011;12643;51.620;7.548;2023-02-28T10:45:11;4.30;;;2.30;;
24483;SDS011;12643;51.620;7.548;2023-02-28T10:47:48;3.72;;;2.10;;
24483;SDS011;12643;51.620;7.548;2023-02-28T10:50:35;3.00;;;1.90;;
24483;SDS011;12643;51.620;7.548;2023-02-28T10:56:01;5.38;;;3.15;;
24483;SDS011;12643;51.620;7.548;2023-02-28T10:58:30;5.13;;;2.75;;
24483;SDS011;12643;51.620;7.548;2023-02-28T11:01:14;5.97;;;2.70;;
24483;SDS011;12643;51.620;7.548;2023-02-28T11:03:44;6.88;;;2.00;;
24483;SDS011;12643;51.620;7.548;2023-02-28T11:06:16;4.55;;;2.35;;
24483;SDS011;12643;51.620;7.548;2023-02-28T11:08:46;5.50;;;3.03;;
24483;SDS011;12643;51.620;7.548;2023-02-28T11:11:16;5.82;;;3.08;;
24483;SDS011;12643;51.620;7.548;2023-02-28T11:13:50;5.40;;;2.67;;
24483;SDS011;12643;51.620;7.548;2023-02-28T11:16:23;5.68;;;2.78;;
24483;SDS011;12643;51.620;7.548;2023-02-28T11:18:59;8.07;;;3.60;;
24483;SDS011;12643;51.620;7.548;2023-02-28T11:21:29;4.03;;;2.70;;
24483;SDS011;12643;51.620;7.548;2023-02-28T11:24:00;4.95;;;2.55;;
24483;SDS011;12643;51.620;7.548;2023-02-28T11:26:37;4.35;;;3.10;;
24483;SDS011;12643;51.620;7.548;2023-02-28T11:29:11;6.13;;;2.80;;
24483;SDS011;12643;51.620;7.548;2023-02-28T11:34:40;3.45;;;2.63;;
24483;SDS011;12643;51.620;7.548;2023-02-28T11:37:10;5.35;;;2.70;;
24483;SDS011;12643;51.620;7.548;2023-02-28T11:39:40;4.55;;;2.65;;
24483;SDS011;12643;51.620;7.548;2023-02-28T11:42:22;4.30;;;2.75;;
24483;SDS011;12643;51.620;7.548;2023-02-28T11:45:08;4.72;;;2.58;;
24483;SDS011;12643;51.620;7.548;2023-02-28T11:47:49;5.97;;;3.00;;
24483;SDS011;12643;51.620;7.548;2023-02-28T11:50:35;7.00;;;3.22;;
24483;SDS011;12643;51.620;7.548;2023-02-28T11:53:14;3.92;;;3.10;;
24483;SDS011;12643;51.620;7.548;2023-02-28T11:55:54;3.63;;;2.72;;
24483;SDS011;12643;51.620;7.548;2023-02-28T11:58:42;3.15;;;2.75;;
24483;SDS011;12643;51.620;7.548;2023-02-28T12:01:21;4.57;;;3.03;;
24483;SDS011;12643;51.620;7.548;2023-02-28T12:04:09;4.50;;;2.95;;
24483;SDS011;12643;51.620;7.548;2023-02-28T12:06:53;5.10;;;2.75;;
24483;SDS011;12643;51.620;7.548;2023-02-28T12:09:35;4.05;;;2.72;;
24483;SDS011;12643;51.620;7.548;2023-02-28T12:12:18;3.72;;;3.03;;
24483;SDS011;12643;51.620;7.548;2023-02-28T12:15:05;4.43;;;2.83;;
24483;SDS011;12643;51.620;7.548;2023-02-28T12:17:59;6.72;;;3.28;;
24483;SDS011;12643;51.620;7.548;2023-02-28T12:20:43;5.03;;;3.00;;
24483;SDS011;12643;51.620;7.548;2023-02-28T12:23:21;4.43;;;2.60;;
24483;SDS011;12643;51.620;7.548;2023-02-28T12:28:51;2.40;;;2.00;;
24483;SDS011;12643;51.620;7.548;2023-02-28T12:31:26;4.20;;;2.30;;
24483;SDS011;12643;51.620;7.548;2023-02-28T12:33:56;4.13;;;2.03;;
24483;SDS011;12643;51.620;7.548;2023-02-28T12:36:32;2.65;;;2.30;;
24483;SDS011;12643;51.620;7.548;2023-02-28T12:39:07;4.05;;;2.42;;
24483;SDS011;12643;51.620;7.548;2023-02-28T12:41:39;9.15;;;2.85;;
24483;SDS011;12643;51.620;7.548;2023-02-28T12:44:11;5.45;;;3.17;;
24483;SDS011;12643;51.620;7.548;2023-02-28T12:46:47;2.72;;;2.45;;
24483;SDS011;12643;51.620;7.548;2023-02-28T12:49:21;3.95;;;3.05;;
24483;SDS011;12643;51.620;7.548;2023-02-28T12:51:57;2.78;;;2.45;;
24483;SDS011;12643;51.620;7.548;2023-02-28T12:54:31;4.88;;;3.10;;
24483;SDS011;12643;51.620;7.548;2023-02-28T12:57:06;4.72;;;2.80;;
24483;SDS011;12643;51.620;7.548;2023-02-28T12:59:41;8.38;;;4.43;;
24483;SDS011;12643;51.620;7.548;2023-02-28T13:02:25;6.80;;;3.13;;
24483;SDS011;12643;51.620;7.548;2023-02-28T13:11:39;4.55;;;2.65;;
24483;SDS011;12643;51.620;7.548;2023-02-28T13:14:19;2.80;;;2.45;;
24483;SDS011;12643;51.620;7.548;2023-02-28T13:17:10;4.28;;;2.88;;
24483;SDS011;12643;51.620;7.548;2023-02-28T13:19:40;5.20;;;2.90;;
24483;SDS011;12643;51.620;7.548;2023-02-28T13:22:16;3.97;;;2.80;;
24483;SDS011;12643;51.620;7.548;2023-02-28T13:24:48;10.65;;;3.90;;
24483;SDS011;12643;51.620;7.548;2023-02-28T13:27:22;6.25;;;3.63;;
24483;SDS011;12643;51.620;7.548;2023-02-28T13:30:00;8.18;;;3.90;;
24483;SDS011;12643;51.620;7.548;2023-02-28T13:32:51;5.68;;;3.22;;
24483;SDS011;12643;51.620;7.548;2023-02-28T13:36:00;4.88;;;3.20;;
24483;SDS011;12643;51.620;7.548;2023-02-28T13:38:39;5.43;;;3.33;;
24483;SDS011;12643;51.620;7.548;2023-02-28T13:44:27;7.43;;;3.40;;
24483;SDS011;12643;51.620;7.548;2023-02-28T13:50:19;3.70;;;2.70;;
24483;SDS011;12643;51.620;7.548;2023-02-28T13:52:53;5.50;;;3.22;;
24483;SDS011;12643;51.620;7.548;2023-02-28T13:55:52;5.43;;;2.90;;
24483;SDS011;12643;51.620;7.548;2023-02-28T13:58:28;4.22;;;2.53;;
24483;SDS011;12643;51.620;7.548;2023-02-28T14:07:00;3.65;;;2.95;;
24483;SDS011;12643;51.620;7.548;2023-02-28T14:09:31;6.20;;;2.90;;
24483;SDS011;12643;51.620;7.548;2023-02-28T14:15:25;5.55;;;3.35;;
24483;SDS011;12643;51.620;7.548;2023-02-28T14:18:19;3.25;;;2.80;;
24483;SDS011;12643;51.620;7.548;2023-02-28T14:20:53;9.10;;;3.25;;
24483;SDS011;12643;51.620;7.548;2023-02-28T14:23:43;4.18;;;2.60;;
24483;SDS011;12643;51.620;7.548;2023-02-28T14:26:31;4.35;;;3.00;;
24483;SDS011;12643;51.620;7.548;2023-02-28T14:29:21;4.75;;;3.20;;
24483;SDS011;12643;51.620;7.548;2023-02-28T14:32:01;5.03;;;3.30;;
24483;SDS011;12643;51.620;7.548;2023-02-28T14:34:37;4.32;;;3.08;;
24483;SDS011;12643;51.620;7.548;2023-02-28T14:37:13;4.55;;;3.10;;
24483;SDS011;12643;51.620;7.548;2023-02-28T14:39:45;10.95;;;4.38;;
24483;SDS011;12643;51.620;7.548;2023-02-28T14:42:30;6.63;;;3.38;;
24483;SDS011;12643;51.620;7.548;2023-02-28T14:45:00;44.80;;;20.50;;
24483;SDS011;12643;51.620;7.548;2023-02-28T14:47:30;9.23;;;5.45;;
24483;SDS011;12643;51.620;7.548;2023-02-28T14:50:02;6.15;;;3.88;;
24483;SDS011;12643;51.620;7.548;2023-02-28T14:52:34;10.73;;;5.90;;
24483;SDS011;12643;51.620;7.548;2023-02-28T14:55:03;14.50;;;9.25;;
24483;SDS011;12643;51.620;7.548;2023-02-28T14:57:39;8.38;;;5.13;;
24483;SDS011;12643;51.620;7.548;2023-02-28T15:00:12;8.38;;;6.38;;
24483;SDS011;12643;51.620;7.548;2023-02-28T15:02:43;7.78;;;5.47;;
24483;SDS011;12643;51.620;7.548;2023-02-28T15:05:25;8.40;;;5.53;;
24483;SDS011;12643;51.620;7.548;2023-02-28T15:08:06;4.90;;;3.92;;
24483;SDS011;12643;51.620;7.548;2023-02-28T15:10:40;6.90;;;4.78;;
24483;SDS011;12643;51.620;7.548;2023-02-28T15:13:12;5.43;;;4.18;;
24483;SDS011;12643;51.620;7.548;2023-02-28T15:15:43;6.07;;;3.60;;
24483;SDS011;12643;51.620;7.548;2023-02-28T15:18:15;7.03;;;4.53;;
24483;SDS011;12643;51.620;7.548;2023-02-28T15:20:53;7.47;;;3.80;;
24483;SDS011;12643;51.620;7.548;2023-02-28T15:23:26;4.63;;;3.60;;
24483;SDS011;12643;51.620;7.548;2023-02-28T15:25:54;8.07;;;3.95;;
24483;SDS011;12643;51.620;7.548;2023-02-28T15:28:22;4.63;;;3.45;;
24483;SDS011;12643;51.620;7.548;2023-02-28T15:30:53;4.88;;;3.08;;
24483;SDS011;12643;51.620;7.548;2023-02-28T15:33:24;5.43;;;3.13;;
24483;SDS011;12643;51.620;7.548;2023-02-28T15:36:05;5.28;;;3.38;;
24483;SDS011;12643;51.620;7.548;2023-02-28T15:38:52;9.20;;;4.80;;
24483;SDS011;12643;51.620;7.548;2023-02-28T15:41:28;4.93;;;3.78;;
24483;SDS011;12643;51.620;7.548;2023-02-28T15:44:15;6.70;;;4.53;;
24483;SDS011;12643;51.620;7.548;2023-02-28T15:46:59;5.68;;;4.13;;
24483;SDS011;12643;51.620;7.548;2023-02-28T15:49:30;6.17;;;2.50;;
24483;SDS011;12643;51.620;7.548;2023-02-28T15:52:09;6.03;;;3.60;;
24483;SDS011;12643;51.620;7.548;2023-02-28T15:54:42;5.35;;;3.35;;
24483;SDS011;12643;51.620;7.548;2023-02-28T15:57:14;5.28;;;3.25;;
24483;SDS011;12643;51.620;7.548;2023-02-28T15:59:48;9.20;;;3.50;;
24483;SDS011;12643;51.620;7.548;2023-02-28T16:02:21;6.07;;;3.30;;
24483;SDS011;12643;51.620;7.548;2023-02-28T16:04:58;6.53;;;3.20;;